createdAt,value
2023-02-26T00:02:48.206Z,814.00
2023-02-26T00:07:48.338Z,809.00
2023-02-26T00:12:48.502Z,805.00
2023-02-26T00:17:48.659Z,802.00
2023-02-26T00:22:48.822Z,790.00
2023-02-26T00:27:49.000Z,786.00
2023-02-26T00:32:49.182Z,789.00
2023-02-26T00:37:49.314Z,781.00
2023-02-26T00:42:49.480Z,778.00
2023-02-26T00:47:49.656Z,772.00
2023-02-26T00:52:49.821Z,767.00
2023-02-26T00:57:50.103Z,767.00
2023-02-26T01:02:50.195Z,762.00
2023-02-26T01:07:50.363Z,767.00
2023-02-26T01:12:50.437Z,758.00
2023-02-26T01:17:50.636Z,757.00
2023-02-26T01:22:50.805Z,750.00
2023-02-26T01:27:50.994Z,743.00
2023-02-26T01:32:51.211Z,747.00
2023-02-26T01:37:51.389Z,742.00
2023-02-26T01:42:51.538Z,743.00
2023-02-26T01:47:51.726Z,737.00
2023-02-26T01:52:51.903Z,733.00
2023-02-26T01:57:52.113Z,736.00
2023-02-26T02:02:52.379Z,735.00
2023-02-26T02:07:52.493Z,732.00
2023-02-26T02:12:52.714Z,730.00
2023-02-26T02:17:52.938Z,716.00
2023-02-26T02:22:53.147Z,721.00
2023-02-26T02:27:53.350Z,723.00
2023-02-26T02:32:53.581Z,719.00
2023-02-26T02:37:53.763Z,719.00
2023-02-26T02:42:54.000Z,717.00
2023-02-26T02:47:54.225Z,712.00
2023-02-26T02:52:54.432Z,716.00
2023-02-26T02:57:54.655Z,709.00
2023-02-26T03:02:54.939Z,706.00
2023-02-26T03:07:55.111Z,711.00
2023-02-26T03:12:55.334Z,707.00
2023-02-26T03:17:55.558Z,704.00
2023-02-26T03:22:55.790Z,699.00
2023-02-26T03:27:56.002Z,701.00
2023-02-26T03:32:56.222Z,686.00
2023-02-26T03:37:56.431Z,685.00
2023-02-26T03:42:56.650Z,683.00
2023-02-26T03:47:56.860Z,692.00
2023-02-26T03:52:57.089Z,686.00
2023-02-26T03:57:57.305Z,691.00
2023-02-26T04:02:57.550Z,676.00
2023-02-26T04:07:59.821Z,681.00
2023-02-26T04:12:58.000Z,684.00
2023-02-26T04:17:58.224Z,681.00
2023-02-26T04:22:58.520Z,678.00
2023-02-26T04:27:58.689Z,673.00
2023-02-26T04:32:58.961Z,666.00
2023-02-26T04:37:59.173Z,669.00
2023-02-26T04:42:59.404Z,668.00
2023-02-26T04:47:59.604Z,669.00
2023-02-26T04:52:59.881Z,672.00
2023-02-26T04:57:59.989Z,667.00
2023-02-26T05:03:00.205Z,658.00
2023-02-26T05:08:00.382Z,655.00
2023-02-26T05:13:06.604Z,659.00
2023-02-26T05:18:00.795Z,654.00
2023-02-26T05:23:00.106Z,654.00
2023-02-26T05:28:00.168Z,654.00
2023-02-26T05:33:00.273Z,654.00
2023-02-26T05:38:00.404Z,654.00
2023-02-26T05:43:00.560Z,654.00
2023-02-26T05:48:00.587Z,654.00
2023-02-26T05:53:00.692Z,654.00
2023-02-26T05:58:00.779Z,654.00
2023-02-26T06:03:00.997Z,654.00
2023-02-26T06:08:00.934Z,654.00
2023-02-26T06:13:01.015Z,654.00
2023-02-26T06:18:01.064Z,654.00
2023-02-26T06:23:01.120Z,654.00
2023-02-26T06:28:01.129Z,654.00
2023-02-26T06:33:01.176Z,654.00
2023-02-26T06:38:01.209Z,654.00
2023-02-26T06:43:01.234Z,654.00
2023-02-26T06:48:01.264Z,654.00
2023-02-26T06:53:01.306Z,654.00
2023-02-26T06:58:01.326Z,654.00
2023-02-26T07:03:01.344Z,654.00
2023-02-26T07:08:01.373Z,654.00
2023-02-26T07:10:19.550Z,944.00
2023-02-26T07:15:20.401Z,1008.00
2023-02-26T07:20:20.238Z,1065.00
2023-02-26T07:25:20.064Z,1148.00
2023-02-26T07:30:19.877Z,1222.00
2023-02-26T07:35:19.689Z,1222.00
2023-02-26T07:40:19.544Z,1256.00
2023-02-26T07:45:19.335Z,1292.00
2023-02-26T07:50:19.175Z,1306.00
2023-02-26T07:55:19.023Z,1334.00
2023-02-26T08:00:18.913Z,1358.00
2023-02-26T08:05:18.793Z,1353.00
2023-02-26T08:10:18.347Z,1379.00
2023-02-26T08:15:18.130Z,1383.00
2023-02-26T08:20:17.913Z,1349.00
2023-02-26T08:25:17.664Z,1371.00
2023-02-26T08:30:17.442Z,1386.00
2023-02-26T08:35:17.188Z,1377.00
2023-02-26T08:40:16.950Z,1327.00
2023-02-26T08:45:16.662Z,1280.00
2023-02-26T08:50:16.416Z,1227.00
2023-02-26T08:55:16.205Z,1174.00
2023-02-26T09:00:15.931Z,1282.00
2023-02-26T09:05:15.672Z,1373.00
2023-02-26T09:10:15.427Z,1408.00
2023-02-26T09:15:15.166Z,1410.00
2023-02-26T09:20:14.914Z,1389.00
2023-02-26T09:25:14.664Z,1388.00
2023-02-26T11:08:18.754Z,1223.00
2023-02-26T11:13:19.377Z,1046.00
2023-02-26T11:19:36.394Z,982.00
2023-02-26T11:24:37.093Z,963.00
2023-02-26T11:29:36.668Z,955.00
2023-02-26T11:34:36.341Z,986.00
2023-02-26T11:39:35.992Z,1006.00
2023-02-26T11:44:35.655Z,1010.00
2023-02-26T11:49:35.313Z,1019.00
2023-02-26T11:54:34.952Z,1036.00
2023-02-26T11:59:34.572Z,1094.00
2023-02-26T12:04:34.236Z,1054.00
2023-02-26T12:09:33.859Z,1054.00
2023-02-26T12:14:33.496Z,1047.00
2023-02-26T12:19:33.118Z,1037.00
2023-02-26T12:24:32.760Z,1031.00
2023-02-26T12:29:32.372Z,1022.00
2023-02-26T12:34:32.040Z,1018.00
2023-02-26T12:39:31.652Z,1015.00
2023-02-26T12:44:31.311Z,998.00
2023-02-26T12:49:30.969Z,993.00
2023-02-26T12:54:30.628Z,977.00
2023-02-26T12:59:30.275Z,966.00
2023-02-26T13:58:36.887Z,1054.00
2023-02-26T14:03:38.069Z,1145.00
2023-02-26T14:08:38.980Z,1174.00
2023-02-26T14:13:38.931Z,1290.00
2023-02-26T14:18:38.852Z,1273.00
2023-02-26T14:23:38.786Z,1331.00
2023-02-26T14:28:38.720Z,1349.00
2023-02-26T14:33:38.712Z,836.00
2023-02-26T14:35:49.786Z,669.00
2023-02-26T14:40:50.618Z,667.00
2023-02-26T14:45:50.468Z,752.00
2023-02-26T14:50:50.245Z,874.00
2023-02-26T14:55:42.768Z,1115.00
2023-02-26T15:00:43.665Z,979.00
2023-02-26T15:05:43.565Z,1041.00
2023-02-26T15:10:43.473Z,1006.00
2023-02-26T15:15:43.408Z,1077.00
2023-02-26T15:20:43.335Z,1079.00
2023-02-26T15:25:43.268Z,1058.00
2023-02-26T15:30:43.467Z,1060.00
2023-02-26T15:35:43.122Z,1042.00
2023-02-26T15:40:43.065Z,990.00
2023-02-26T15:45:42.989Z,964.00
2023-02-26T15:50:42.890Z,937.00
2023-02-26T15:55:43.208Z,908.00
2023-02-26T16:00:42.705Z,992.00
2023-02-26T16:05:42.605Z,1012.00
2023-02-26T16:10:42.597Z,1024.00
2023-02-26T16:15:42.461Z,1047.00
2023-02-26T16:20:42.647Z,1038.00
2023-02-26T16:25:42.260Z,1062.00
2023-02-26T16:30:42.183Z,1057.00
2023-02-26T16:35:42.352Z,1047.00
2023-02-26T16:40:41.952Z,1045.00
2023-02-26T16:45:41.839Z,1031.00
2023-02-26T16:50:41.786Z,1029.00
2023-02-26T16:55:41.690Z,1031.00
2023-02-26T17:00:41.621Z,1038.00
2023-02-26T17:05:41.500Z,1027.00
2023-02-26T17:10:41.431Z,1013.00
2023-02-26T17:15:41.393Z,1002.00
2023-02-26T17:20:41.273Z,1119.00
2023-02-26T17:25:41.170Z,1082.00
2023-02-26T17:30:41.338Z,1118.00
2023-02-26T17:35:40.933Z,1136.00
2023-02-26T17:38:22.828Z,1171.00
2023-02-26T17:43:23.740Z,1285.00
2023-02-26T17:48:23.655Z,1309.00
2023-02-26T17:53:23.606Z,1159.00
2023-02-26T17:55:12.001Z,1136.00
2023-02-26T18:00:18.860Z,1144.00
2023-02-26T18:05:12.801Z,1108.00
2023-02-26T18:10:12.702Z,1090.00
2023-02-26T18:15:12.596Z,1089.00
2023-02-26T18:20:12.510Z,1084.00
2023-02-26T18:25:12.404Z,1082.00
2023-02-26T18:30:12.279Z,1045.00
2023-02-26T18:35:12.191Z,1048.00
2023-02-26T18:40:12.045Z,1042.00
2023-02-26T18:45:11.940Z,1031.00
2023-02-26T18:50:13.828Z,1018.00
2023-02-26T18:55:11.755Z,1013.00
2023-02-26T19:00:11.675Z,1011.00
2023-02-26T19:05:11.607Z,1001.00
2023-02-26T19:10:11.494Z,991.00
2023-02-26T19:15:11.407Z,983.00
2023-02-26T19:20:11.335Z,981.00
2023-02-26T19:25:11.225Z,963.00
2023-02-26T19:30:11.158Z,958.00
2023-02-26T19:35:11.101Z,939.00
2023-02-26T19:40:11.026Z,937.00
2023-02-26T19:45:10.966Z,934.00
2023-02-26T19:50:10.891Z,927.00
2023-02-26T19:55:10.834Z,919.00
2023-02-26T20:00:10.785Z,914.00
2023-02-26T20:05:10.755Z,905.00
2023-02-26T20:10:10.678Z,897.00
2023-02-26T20:15:10.625Z,890.00
2023-02-26T20:20:10.571Z,888.00
2023-02-26T20:25:10.531Z,887.00
2023-02-26T20:30:10.471Z,876.00
2023-02-26T20:35:10.432Z,869.00
2023-02-26T20:40:10.389Z,874.00
2023-02-26T20:45:10.368Z,869.00
2023-02-26T20:50:10.290Z,866.00
2023-02-26T20:55:10.262Z,863.00
2023-02-26T21:00:10.223Z,862.00
2023-02-26T21:05:10.217Z,856.00
2023-02-26T21:10:10.157Z,850.00
2023-02-26T21:15:10.129Z,851.00
2023-02-26T21:20:10.104Z,840.00
2023-02-26T21:25:10.061Z,830.00
2023-02-26T21:30:10.041Z,826.00
2023-02-26T21:35:10.087Z,812.00
2023-02-26T21:40:10.019Z,810.00
2023-02-26T21:45:10.009Z,807.00
2023-02-26T21:50:10.062Z,809.00
2023-02-26T21:55:10.075Z,807.00
2023-02-26T22:00:10.063Z,797.00
2023-02-26T22:05:10.104Z,795.00
2023-02-26T22:10:10.089Z,778.00
2023-02-26T22:15:10.098Z,779.00
2023-02-26T22:20:10.112Z,776.00
2023-02-26T22:25:10.171Z,775.00
2023-02-26T22:30:10.193Z,771.00
2023-02-26T22:35:10.252Z,764.00
2023-02-26T22:40:10.302Z,761.00
2023-02-26T22:45:10.370Z,759.00
2023-02-26T22:50:10.461Z,734.00
2023-02-26T22:55:10.474Z,753.00
2023-02-26T23:00:10.549Z,745.00
2023-02-26T23:05:10.649Z,741.00
2023-02-26T23:10:10.701Z,741.00
2023-02-26T23:15:10.782Z,731.00
2023-02-26T23:20:10.852Z,729.00
2023-02-26T23:25:10.928Z,728.00
2023-02-26T23:30:11.053Z,722.00
2023-02-26T23:35:11.131Z,728.00
2023-02-26T23:40:11.246Z,723.00
2023-02-26T23:45:11.342Z,712.00
2023-02-26T23:50:11.457Z,712.00
2023-02-26T23:55:11.584Z,713.00
